Mongo, IN (46771)

5:32 PM EST on February 07, 2016 (GMT -0500)
Adams Lake | | Change Station
CLOSE
Current Station
Personal Weather Station
Location: Wolcottville, IN
Elevation: 955 ft
Nearby Weather Stations

Elev 955 ft 41.56 °N, 85.32 °W | Updated 12 seconds ago

Mostly Cloudy
Mostly Cloudy
42.8 °F
Feels Like 40 °F
N
5.3
Wind Variable Wind from SW

Today
High -- | Low -- °F
--% Chance of Precip.
Yesterday
High -- | Low -- °F
Precip. -- in
Pressure 29.75 in
Visibility 10.0 miles
Clouds Few 11000 ft
Windchill 40 °F
Dew Point 30 °F
Humidity 59%
Rainfall 0.00 in
Snow Depth Not available.
7:47 AM 6:03 PM
Waning Crescent, 1% visible
METAR KANQ 072235Z AUTO 24013KT 10SM FEW110 07/01 A2975 RMK
Pressure 29.75 in
Visibility 10.0 miles
Clouds Few 11000 ft
Windchill 40 °F
Dew Point 30 °F
Humidity 59%
Rainfall 0.00 in
Snow Depth Not available.
7:47 AM 6:03 PM
Waning Crescent, 1% visible
METAR KANQ 072235Z AUTO 24013KT 10SM FEW110 07/01 A2975 RMK

10-Day Weather Forecast

Almanac

Astronomy

Feb. 07, 2016 Rise Set
Actual Time
Civil Twilight
Nautical Twilight
Astronomical Twilight
Moon
Length of Visible Light
Length of Day
Tomorrow will be .
, % of the Moon is Illuminated

Today's Extremes

State Highs State Lows

Community

WunderPhotos

Upload Photos

1,891,324 photos uploaded!

WunderBlog® & News

Nearby

Air Quality

  Air Quality AQ Index Pollutant
Not available.

Snow Depth

Station Depth Elevation

Earthquake Activity

City Distance Mag. Time & Date
Minimum magnitude displayed is 2.5.

Coastal Water Temperatures

Place Temperature

Stations

Nearby Weather Stations

Station Location Temp. Windchill Dew Point Humidity Wind Precip. Elev Updated Type
                   

Watches & Warnings

There are currently no watches in effect.